Terminal Aerodrome Forecast
Issued by NWS

Home | Current Version | Previous Version | Text Only | Print | Product List | Glossary On
Versions: 1 2 3 4 5 6 7 8 9 10 11 12 13
000
FTUS46 KMFR 222300 RRA
TAFLMT
TAF
KLMT 222347Z 2300/2324 19012G20KT P6SM -SHRA SCT040 BKN060 OVC100
     FM230100 18010G18KT P6SM SCT040 SCT060 OVC100
     FM230600 17012KT P6SM -RA SCT030 BKN040 OVC080
     FM231200 19012G19KT P6SM -RA SCT010 BKN020 OVC030=

USA.gov is the U.S. government's official web portal to all federal, state and local government web resources and services.